sensor_id;sensor_type;location;lat;lon;timestamp;temperature;humidity
72126;SHT31;59999;51.676;22.650;2023-03-23T00:02:14;8.24;77.22
72126;SHT31;59999;51.676;22.650;2023-03-23T00:04:41;8.37;76.89
72126;SHT31;59999;51.676;22.650;2023-03-23T00:07:08;8.42;77.01
72126;SHT31;59999;51.676;22.650;2023-03-23T00:09:34;8.48;76.54
72126;SHT31;59999;51.676;22.650;2023-03-23T00:12:07;8.63;76.35
72126;SHT31;59999;51.676;22.650;2023-03-23T00:14:34;8.72;76.25
72126;SHT31;59999;51.676;22.650;2023-03-23T00:17:08;8.79;76.11
72126;SHT31;59999;51.676;22.650;2023-03-23T00:19:37;8.84;76.05
72126;SHT31;59999;51.676;22.650;2023-03-23T00:22:14;8.87;75.68
72126;SHT31;59999;51.676;22.650;2023-03-23T00:24:41;8.92;75.72
72126;SHT31;59999;51.676;22.650;2023-03-23T00:27:08;8.93;75.70
72126;SHT31;59999;51.676;22.650;2023-03-23T00:29:40;8.92;75.75
72126;SHT31;59999;51.676;22.650;2023-03-23T00:32:08;8.94;75.58
72126;SHT31;59999;51.676;22.650;2023-03-23T00:34:40;8.96;75.62
72126;SHT31;59999;51.676;22.650;2023-03-23T00:37:07;9.02;75.72
72126;SHT31;59999;51.676;22.650;2023-03-23T00:39:33;9.06;75.74
72126;SHT31;59999;51.676;22.650;2023-03-23T00:42:02;9.03;75.65
72126;SHT31;59999;51.676;22.650;2023-03-23T00:44:30;9.04;75.89
72126;SHT31;59999;51.676;22.650;2023-03-23T00:46:57;8.97;75.98
72126;SHT31;59999;51.676;22.650;2023-03-23T00:49:25;9.04;75.84
72126;SHT31;59999;51.676;22.650;2023-03-23T00:51:57;9.10;75.74
72126;SHT31;59999;51.676;22.650;2023-03-23T00:54:24;9.11;75.60
72126;SHT31;59999;51.676;22.650;2023-03-23T00:56:51;9.13;75.76
72126;SHT31;59999;51.676;22.650;2023-03-23T00:59:18;9.17;75.58
72126;SHT31;59999;51.676;22.650;2023-03-23T01:01:44;9.19;75.52
72126;SHT31;59999;51.676;22.650;2023-03-23T01:04:10;9.21;75.62
72126;SHT31;59999;51.676;22.650;2023-03-23T01:06:39;9.24;75.61
72126;SHT31;59999;51.676;22.650;2023-03-23T01:09:23;9.27;75.54
72126;SHT31;59999;51.676;22.650;2023-03-23T01:11:50;9.32;75.36
72126;SHT31;59999;51.676;22.650;2023-03-23T01:14:18;9.32;75.40
72126;SHT31;59999;51.676;22.650;2023-03-23T01:16:44;9.37;75.19
72126;SHT31;59999;51.676;22.650;2023-03-23T01:19:11;9.37;75.26
72126;SHT31;59999;51.676;22.650;2023-03-23T01:21:37;9.35;75.34
72126;SHT31;59999;51.676;22.650;2023-03-23T01:24:03;9.30;75.57
72126;SHT31;59999;51.676;22.650;2023-03-23T01:26:29;9.30;75.52
72126;SHT31;59999;51.676;22.650;2023-03-23T01:28:55;9.28;75.42
72126;SHT31;59999;51.676;22.650;2023-03-23T01:31:23;9.26;75.68
72126;SHT31;59999;51.676;22.650;2023-03-23T01:33:51;9.20;75.65
72126;SHT31;59999;51.676;22.650;2023-03-23T01:36:20;9.26;75.59
72126;SHT31;59999;51.676;22.650;2023-03-23T01:38:48;9.21;75.69
72126;SHT31;59999;51.676;22.650;2023-03-23T01:41:15;9.16;75.92
72126;SHT31;59999;51.676;22.650;2023-03-23T01:46:47;9.11;75.92
72126;SHT31;59999;51.676;22.650;2023-03-23T01:49:17;9.10;76.05
72126;SHT31;59999;51.676;22.650;2023-03-23T01:51:59;9.10;76.04
72126;SHT31;59999;51.676;22.650;2023-03-23T01:54:27;9.07;76.16
72126;SHT31;59999;51.676;22.650;2023-03-23T01:56:57;9.10;76.10
72126;SHT31;59999;51.676;22.650;2023-03-23T01:59:25;9.06;76.21
72126;SHT31;59999;51.676;22.650;2023-03-23T02:01:53;9.03;76.33
72126;SHT31;59999;51.676;22.650;2023-03-23T02:04:20;9.00;76.30
72126;SHT31;59999;51.676;22.650;2023-03-23T02:06:47;9.00;76.46
72126;SHT31;59999;51.676;22.650;2023-03-23T02:09:14;8.96;76.44
72126;SHT31;59999;51.676;22.650;2023-03-23T02:11:42;8.92;76.55
72126;SHT31;59999;51.676;22.650;2023-03-23T02:14:09;8.86;76.71
72126;SHT31;59999;51.676;22.650;2023-03-23T02:28:05;8.63;77.43
72126;SHT31;59999;51.676;22.650;2023-03-23T02:36:28;8.55;77.70
72126;SHT31;59999;51.676;22.650;2023-03-23T02:39:03;8.55;77.82
72126;SHT31;59999;51.676;22.650;2023-03-23T02:41:36;8.59;77.66
72126;SHT31;59999;51.676;22.650;2023-03-23T02:44:04;8.59;77.64
72126;SHT31;59999;51.676;22.650;2023-03-23T02:46:32;8.59;77.76
72126;SHT31;59999;51.676;22.650;2023-03-23T02:48:59;8.58;77.82
72126;SHT31;59999;51.676;22.650;2023-03-23T02:51:27;8.65;77.79
72126;SHT31;59999;51.676;22.650;2023-03-23T02:53:55;8.65;77.67
72126;SHT31;59999;51.676;22.650;2023-03-23T02:56:23;8.65;77.68
72126;SHT31;59999;51.676;22.650;2023-03-23T02:58:50;8.69;77.53
72126;SHT31;59999;51.676;22.650;2023-03-23T03:03:52;8.72;77.54
72126;SHT31;59999;51.676;22.650;2023-03-23T03:11:48;8.65;77.62
72126;SHT31;59999;51.676;22.650;2023-03-23T03:14:22;8.62;77.63
72126;SHT31;59999;51.676;22.650;2023-03-23T03:16:57;8.61;77.66
72126;SHT31;59999;51.676;22.650;2023-03-23T03:19:35;8.56;77.73
72126;SHT31;59999;51.676;22.650;2023-03-23T03:22:03;8.61;77.70
72126;SHT31;59999;51.676;22.650;2023-03-23T03:24:31;8.62;77.65
72126;SHT31;59999;51.676;22.650;2023-03-23T03:26:59;8.62;77.56
72126;SHT31;59999;51.676;22.650;2023-03-23T03:29:33;8.62;77.54
72126;SHT31;59999;51.676;22.650;2023-03-23T03:32:02;8.62;77.50
72126;SHT31;59999;51.676;22.650;2023-03-23T03:34:31;8.58;77.49
72126;SHT31;59999;51.676;22.650;2023-03-23T03:36:58;8.58;77.57
72126;SHT31;59999;51.676;22.650;2023-03-23T03:39:26;8.62;77.56
72126;SHT31;59999;51.676;22.650;2023-03-23T03:41:53;8.61;77.52
72126;SHT31;59999;51.676;22.650;2023-03-23T03:44:20;8.59;77.55
72126;SHT31;59999;51.676;22.650;2023-03-23T03:46:46;8.55;77.60
72126;SHT31;59999;51.676;22.650;2023-03-23T03:49:12;8.52;77.69
72126;SHT31;59999;51.676;22.650;2023-03-23T03:51:39;8.49;77.66
72126;SHT31;59999;51.676;22.650;2023-03-23T03:54:06;8.51;77.70
72126;SHT31;59999;51.676;22.650;2023-03-23T03:56:32;8.44;77.91
72126;SHT31;59999;51.676;22.650;2023-03-23T03:59:02;8.44;77.88
72126;SHT31;59999;51.676;22.650;2023-03-23T04:01:28;8.41;77.87
72126;SHT31;59999;51.676;22.650;2023-03-23T04:03:54;8.40;77.85
72126;SHT31;59999;51.676;22.650;2023-03-23T04:06:21;8.34;78.01
72126;SHT31;59999;51.676;22.650;2023-03-23T04:08:47;8.34;78.00
72126;SHT31;59999;51.676;22.650;2023-03-23T04:11:14;8.34;77.89
72126;SHT31;59999;51.676;22.650;2023-03-23T04:13:41;8.30;78.07
72126;SHT31;59999;51.676;22.650;2023-03-23T04:16:08;8.28;77.99
72126;SHT31;59999;51.676;22.650;2023-03-23T04:18:35;8.28;77.97
72126;SHT31;59999;51.676;22.650;2023-03-23T04:21:03;8.30;77.89
72126;SHT31;59999;51.676;22.650;2023-03-23T04:23:30;8.28;77.62
72126;SHT31;59999;51.676;22.650;2023-03-23T04:25:59;8.27;77.93
72126;SHT31;59999;51.676;22.650;2023-03-23T04:28:25;8.20;78.14
72126;SHT31;59999;51.676;22.650;2023-03-23T04:30:52;8.20;78.29
72126;SHT31;59999;51.676;22.650;2023-03-23T04:33:25;8.17;78.12
72126;SHT31;59999;51.676;22.650;2023-03-23T04:35:53;8.13;78.06
72126;SHT31;59999;51.676;22.650;2023-03-23T04:38:20;8.03;78.50
72126;SHT31;59999;51.676;22.650;2023-03-23T04:40:48;7.98;78.83
72126;SHT31;59999;51.676;22.650;2023-03-23T04:43:18;8.01;78.80
72126;SHT31;59999;51.676;22.650;2023-03-23T04:45:54;8.03;78.82
72126;SHT31;59999;51.676;22.650;2023-03-23T04:48:24;8.01;78.86
72126;SHT31;59999;51.676;22.650;2023-03-23T04:50:50;8.01;79.00
72126;SHT31;59999;51.676;22.650;2023-03-23T04:53:17;8.04;79.11
72126;SHT31;59999;51.676;22.650;2023-03-23T04:55:44;8.08;78.91
72126;SHT31;59999;51.676;22.650;2023-03-23T04:58:10;8.05;78.85
72126;SHT31;59999;51.676;22.650;2023-03-23T05:00:38;8.10;78.90
72126;SHT31;59999;51.676;22.650;2023-03-23T05:03:04;8.13;78.96
72126;SHT31;59999;51.676;22.650;2023-03-23T05:05:34;8.17;78.86
72126;SHT31;59999;51.676;22.650;2023-03-23T05:08:00;8.24;78.68
72126;SHT31;59999;51.676;22.650;2023-03-23T05:10:26;8.31;78.35
72126;SHT31;59999;51.676;22.650;2023-03-23T05:12:53;8.31;78.45
72126;SHT31;59999;51.676;22.650;2023-03-23T05:15:19;8.40;78.23
72126;SHT31;59999;51.676;22.650;2023-03-23T05:17:45;8.45;78.12
72126;SHT31;59999;51.676;22.650;2023-03-23T05:20:16;8.56;77.94
72126;SHT31;59999;51.676;22.650;2023-03-23T05:22:48;8.68;77.63
72126;SHT31;59999;51.676;22.650;2023-03-23T05:25:16;8.79;77.67
72126;SHT31;59999;51.676;22.650;2023-03-23T05:27:46;8.87;77.15
72126;SHT31;59999;51.676;22.650;2023-03-23T05:30:15;9.00;76.88
72126;SHT31;59999;51.676;22.650;2023-03-23T05:32:43;9.09;76.76
72126;SHT31;59999;51.676;22.650;2023-03-23T05:35:11;9.21;76.34
72126;SHT31;59999;51.676;22.650;2023-03-23T05:37:38;9.34;76.09
72126;SHT31;59999;51.676;22.650;2023-03-23T05:40:05;9.51;76.05
72126;SHT31;59999;51.676;22.650;2023-03-23T05:42:35;9.63;75.62
72126;SHT31;59999;51.676;22.650;2023-03-23T05:45:03;9.82;75.09
72126;SHT31;59999;51.676;22.650;2023-03-23T05:47:29;9.96;74.77
72126;SHT31;59999;51.676;22.650;2023-03-23T05:49:56;10.05;74.86
72126;SHT31;59999;51.676;22.650;2023-03-23T05:52:23;10.09;74.48
72126;SHT31;59999;51.676;22.650;2023-03-23T05:54:52;10.10;74.77
72126;SHT31;59999;51.676;22.650;2023-03-23T05:57:19;10.09;74.35
72126;SHT31;59999;51.676;22.650;2023-03-23T05:59:48;10.09;74.15
72126;SHT31;59999;51.676;22.650;2023-03-23T06:02:14;10.12;74.47
72126;SHT31;59999;51.676;22.650;2023-03-23T06:04:40;10.14;74.92
72126;SHT31;59999;51.676;22.650;2023-03-23T06:07:07;10.19;74.39
72126;SHT31;59999;51.676;22.650;2023-03-23T06:09:33;10.26;74.27
72126;SHT31;59999;51.676;22.650;2023-03-23T06:11:59;10.32;74.27
72126;SHT31;59999;51.676;22.650;2023-03-23T06:14:25;10.36;74.48
72126;SHT31;59999;51.676;22.650;2023-03-23T06:16:51;10.44;74.40
72126;SHT31;59999;51.676;22.650;2023-03-23T06:19:18;10.56;74.33
72126;SHT31;59999;51.676;22.650;2023-03-23T06:21:43;10.69;73.82
72126;SHT31;59999;51.676;22.650;2023-03-23T06:24:09;10.88;73.69
72126;SHT31;59999;51.676;22.650;2023-03-23T06:26:38;11.04;72.77
72126;SHT31;59999;51.676;22.650;2023-03-23T06:29:05;11.26;73.14
72126;SHT31;59999;51.676;22.650;2023-03-23T06:31:44;11.49;73.52
72126;SHT31;59999;51.676;22.650;2023-03-23T06:34:11;11.67;71.71
72126;SHT31;59999;51.676;22.650;2023-03-23T06:36:37;11.70;71.41
72126;SHT31;59999;51.676;22.650;2023-03-23T06:39:04;11.80;71.60
72126;SHT31;59999;51.676;22.650;2023-03-23T06:41:31;11.88;71.47
72126;SHT31;59999;51.676;22.650;2023-03-23T06:43:58;11.95;72.78
72126;SHT31;59999;51.676;22.650;2023-03-23T06:46:24;11.97;72.13
72126;SHT31;59999;51.676;22.650;2023-03-23T06:48:50;11.97;70.97
72126;SHT31;59999;51.676;22.650;2023-03-23T06:51:17;11.99;71.59
72126;SHT31;59999;51.676;22.650;2023-03-23T06:53:44;11.97;71.22
72126;SHT31;59999;51.676;22.650;2023-03-23T06:56:10;12.04;71.01
72126;SHT31;59999;51.676;22.650;2023-03-23T06:58:37;12.10;71.45
72126;SHT31;59999;51.676;22.650;2023-03-23T07:01:03;12.10;71.03
72126;SHT31;59999;51.676;22.650;2023-03-23T07:03:31;12.12;70.65
72126;SHT31;59999;51.676;22.650;2023-03-23T07:05:57;12.10;70.67
72126;SHT31;59999;51.676;22.650;2023-03-23T07:08:24;12.06;71.83
72126;SHT31;59999;51.676;22.650;2023-03-23T07:10:51;12.15;72.06
72126;SHT31;59999;51.676;22.650;2023-03-23T07:13:19;12.14;70.90
72126;SHT31;59999;51.676;22.650;2023-03-23T07:15:45;12.21;70.48
72126;SHT31;59999;51.676;22.650;2023-03-23T07:18:11;12.26;70.43
72126;SHT31;59999;51.676;22.650;2023-03-23T07:20:37;12.38;70.43
72126;SHT31;59999;51.676;22.650;2023-03-23T07:23:03;12.46;70.27
72126;SHT31;59999;51.676;22.650;2023-03-23T07:25:32;12.56;71.39
72126;SHT31;59999;51.676;22.650;2023-03-23T07:27:59;12.69;70.06
72126;SHT31;59999;51.676;22.650;2023-03-23T07:30:26;12.86;71.01
72126;SHT31;59999;51.676;22.650;2023-03-23T07:32:52;12.99;69.71
72126;SHT31;59999;51.676;22.650;2023-03-23T07:35:18;13.08;69.05
72126;SHT31;59999;51.676;22.650;2023-03-23T07:37:44;13.14;68.71
72126;SHT31;59999;51.676;22.650;2023-03-23T07:40:14;13.25;68.23
72126;SHT31;59999;51.676;22.650;2023-03-23T07:42:42;13.29;69.58
72126;SHT31;59999;51.676;22.650;2023-03-23T07:45:11;13.37;68.45
72126;SHT31;59999;51.676;22.650;2023-03-23T07:47:38;13.42;67.61
72126;SHT31;59999;51.676;22.650;2023-03-23T07:50:06;13.54;67.07
72126;SHT31;59999;51.676;22.650;2023-03-23T07:52:33;13.65;67.65
72126;SHT31;59999;51.676;22.650;2023-03-23T07:54:59;13.68;67.31
72126;SHT31;59999;51.676;22.650;2023-03-23T07:57:28;13.69;66.95
72126;SHT31;59999;51.676;22.650;2023-03-23T07:59:54;13.59;66.32
72126;SHT31;59999;51.676;22.650;2023-03-23T08:02:23;13.61;67.26
72126;SHT31;59999;51.676;22.650;2023-03-23T08:04:49;13.68;67.18
72126;SHT31;59999;51.676;22.650;2023-03-23T08:07:17;13.83;66.19
72126;SHT31;59999;51.676;22.650;2023-03-23T08:09:45;13.86;66.63
72126;SHT31;59999;51.676;22.650;2023-03-23T08:12:11;14.02;66.61
72126;SHT31;59999;51.676;22.650;2023-03-23T08:14:37;14.24;67.07
72126;SHT31;59999;51.676;22.650;2023-03-23T08:17:04;14.48;66.74
72126;SHT31;59999;51.676;22.650;2023-03-23T08:19:29;14.58;66.22
72126;SHT31;59999;51.676;22.650;2023-03-23T08:21:56;14.61;64.52
72126;SHT31;59999;51.676;22.650;2023-03-23T08:24:22;14.51;65.17
72126;SHT31;59999;51.676;22.650;2023-03-23T08:26:49;14.49;64.25
72126;SHT31;59999;51.676;22.650;2023-03-23T08:29:15;14.35;65.69
72126;SHT31;59999;51.676;22.650;2023-03-23T08:31:42;14.33;66.01
72126;SHT31;59999;51.676;22.650;2023-03-23T08:34:10;14.35;65.13
72126;SHT31;59999;51.676;22.650;2023-03-23T08:36:36;14.30;64.28
72126;SHT31;59999;51.676;22.650;2023-03-23T08:39:21;14.28;65.38
72126;SHT31;59999;51.676;22.650;2023-03-23T08:41:49;14.21;66.35
72126;SHT31;59999;51.676;22.650;2023-03-23T08:44:15;14.16;65.37
72126;SHT31;59999;51.676;22.650;2023-03-23T08:46:41;14.18;66.05
72126;SHT31;59999;51.676;22.650;2023-03-23T08:49:07;14.16;65.47
72126;SHT31;59999;51.676;22.650;2023-03-23T08:51:33;14.14;65.16
72126;SHT31;59999;51.676;22.650;2023-03-23T08:53:59;14.16;66.47
72126;SHT31;59999;51.676;22.650;2023-03-23T08:56:25;14.14;65.60
72126;SHT31;59999;51.676;22.650;2023-03-23T08:58:51;14.12;66.64
72126;SHT31;59999;51.676;22.650;2023-03-23T09:01:17;14.12;65.83
72126;SHT31;59999;51.676;22.650;2023-03-23T09:03:44;14.09;66.77
72126;SHT31;59999;51.676;22.650;2023-03-23T09:06:10;14.14;66.07
72126;SHT31;59999;51.676;22.650;2023-03-23T09:08:38;14.21;65.39
72126;SHT31;59999;51.676;22.650;2023-03-23T09:11:09;14.34;64.91
72126;SHT31;59999;51.676;22.650;2023-03-23T09:13:36;14.47;64.36
72126;SHT31;59999;51.676;22.650;2023-03-23T09:16:04;14.68;65.50
72126;SHT31;59999;51.676;22.650;2023-03-23T09:18:30;14.89;64.48
72126;SHT31;59999;51.676;22.650;2023-03-23T09:20:59;14.98;62.93
72126;SHT31;59999;51.676;22.650;2023-03-23T09:23:25;15.05;63.45
72126;SHT31;59999;51.676;22.650;2023-03-23T09:25:52;15.19;63.22
72126;SHT31;59999;51.676;22.650;2023-03-23T09:28:19;15.23;63.19
72126;SHT31;59999;51.676;22.650;2023-03-23T09:30:45;15.30;63.43
72126;SHT31;59999;51.676;22.650;2023-03-23T09:33:13;15.40;62.45
72126;SHT31;59999;51.676;22.650;2023-03-23T09:35:40;15.44;63.42
72126;SHT31;59999;51.676;22.650;2023-03-23T09:38:09;15.44;63.16
72126;SHT31;59999;51.676;22.650;2023-03-23T09:43:25;15.68;61.78
72126;SHT31;59999;51.676;22.650;2023-03-23T09:45:58;15.80;62.13
72126;SHT31;59999;51.676;22.650;2023-03-23T09:51:27;15.81;60.59
72126;SHT31;59999;51.676;22.650;2023-03-23T09:54:02;15.91;61.42
72126;SHT31;59999;51.676;22.650;2023-03-23T09:56:31;16.06;60.96
72126;SHT31;59999;51.676;22.650;2023-03-23T10:01:57;15.94;59.80
72126;SHT31;59999;51.676;22.650;2023-03-23T10:04:41;15.97;60.72
72126;SHT31;59999;51.676;22.650;2023-03-23T10:07:16;16.04;60.27
72126;SHT31;59999;51.676;22.650;2023-03-23T10:09:45;15.94;59.21
72126;SHT31;59999;51.676;22.650;2023-03-23T10:15:13;15.84;60.77
72126;SHT31;59999;51.676;22.650;2023-03-23T10:17:58;15.91;59.20
72126;SHT31;59999;51.676;22.650;2023-03-23T10:20:39;15.90;58.60
72126;SHT31;59999;51.676;22.650;2023-03-23T10:26:00;15.87;59.10
72126;SHT31;59999;51.676;22.650;2023-03-23T10:28:36;15.85;58.74
72126;SHT31;59999;51.676;22.650;2023-03-23T10:31:03;15.82;59.89
72126;SHT31;59999;51.676;22.650;2023-03-23T10:33:41;15.77;61.13
72126;SHT31;59999;51.676;22.650;2023-03-23T10:38:56;15.88;60.61
72126;SHT31;59999;51.676;22.650;2023-03-23T10:41:23;15.97;59.58
72126;SHT31;59999;51.676;22.650;2023-03-23T10:43:49;16.05;60.31
72126;SHT31;59999;51.676;22.650;2023-03-23T10:46:44;16.13;59.20
72126;SHT31;59999;51.676;22.650;2023-03-23T10:49:23;16.26;59.39
72126;SHT31;59999;51.676;22.650;2023-03-23T10:57:31;16.32;59.67
72126;SHT31;59999;51.676;22.650;2023-03-23T11:00:02;16.29;57.90
72126;SHT31;59999;51.676;22.650;2023-03-23T11:02:37;16.29;57.83
72126;SHT31;59999;51.676;22.650;2023-03-23T11:05:22;16.45;59.36
72126;SHT31;59999;51.676;22.650;2023-03-23T11:07:54;16.52;60.32
72126;SHT31;59999;51.676;22.650;2023-03-23T11:13:13;16.50;58.47
72126;SHT31;59999;51.676;22.650;2023-03-23T11:15:42;16.56;57.62
72126;SHT31;59999;51.676;22.650;2023-03-23T11:18:19;16.70;58.34
72126;SHT31;59999;51.676;22.650;2023-03-23T11:20:48;16.85;58.13
72126;SHT31;59999;51.676;22.650;2023-03-23T11:28:51;17.45;57.85
72126;SHT31;59999;51.676;22.650;2023-03-23T11:31:43;17.63;55.56
72126;SHT31;59999;51.676;22.650;2023-03-23T11:34:20;17.72;54.43
72126;SHT31;59999;51.676;22.650;2023-03-23T11:39:26;17.49;54.93
72126;SHT31;59999;51.676;22.650;2023-03-23T11:41:57;17.36;54.31
72126;SHT31;59999;51.676;22.650;2023-03-23T11:44:24;17.34;54.42
72126;SHT31;59999;51.676;22.650;2023-03-23T11:47:03;17.26;54.28
72126;SHT31;59999;51.676;22.650;2023-03-23T11:49:45;17.28;54.86
72126;SHT31;59999;51.676;22.650;2023-03-23T11:52:24;17.26;55.97
72126;SHT31;59999;51.676;22.650;2023-03-23T11:57:43;17.32;54.67
72126;SHT31;59999;51.676;22.650;2023-03-23T12:00:18;17.40;56.21
72126;SHT31;59999;51.676;22.650;2023-03-23T12:02:57;17.46;55.03
72126;SHT31;59999;51.676;22.650;2023-03-23T12:06:08;17.50;55.25
72126;SHT31;59999;51.676;22.650;2023-03-23T12:11:56;17.35;53.93
72126;SHT31;59999;51.676;22.650;2023-03-23T12:14:37;17.32;54.25
72126;SHT31;59999;51.676;22.650;2023-03-23T12:19:50;17.36;54.96
72126;SHT31;59999;51.676;22.650;2023-03-23T12:22:40;17.28;55.37
72126;SHT31;59999;51.676;22.650;2023-03-23T12:28:14;17.10;54.01
72126;SHT31;59999;51.676;22.650;2023-03-23T12:31:11;16.91;54.27
72126;SHT31;59999;51.676;22.650;2023-03-23T12:36:53;16.83;56.40
72126;SHT31;59999;51.676;22.650;2023-03-23T12:40:02;16.78;58.17
72126;SHT31;59999;51.676;22.650;2023-03-23T12:48:26;16.74;57.62
72126;SHT31;59999;51.676;22.650;2023-03-23T12:56:23;16.74;57.29
72126;SHT31;59999;51.676;22.650;2023-03-23T12:59:13;16.76;58.30
72126;SHT31;59999;51.676;22.650;2023-03-23T13:01:57;16.80;58.33
72126;SHT31;59999;51.676;22.650;2023-03-23T13:04:32;16.81;57.47
72126;SHT31;59999;51.676;22.650;2023-03-23T13:07:02;16.85;58.52
72126;SHT31;59999;51.676;22.650;2023-03-23T13:12:11;17.19;58.86
72126;SHT31;59999;51.676;22.650;2023-03-23T13:14:55;17.32;55.79
72126;SHT31;59999;51.676;22.650;2023-03-23T13:28:30;17.73;54.52
72126;SHT31;59999;51.676;22.650;2023-03-23T13:31:04;17.93;53.77
72126;SHT31;59999;51.676;22.650;2023-03-23T13:33:36;18.01;53.77
72126;SHT31;59999;51.676;22.650;2023-03-23T13:36:13;18.17;52.43
72126;SHT31;59999;51.676;22.650;2023-03-23T13:38:47;18.23;51.76
72126;SHT31;59999;51.676;22.650;2023-03-23T13:41:17;18.37;50.66
72126;SHT31;59999;51.676;22.650;2023-03-23T13:43:43;18.51;52.16
72126;SHT31;59999;51.676;22.650;2023-03-23T13:48:42;18.86;50.06
72126;SHT31;59999;51.676;22.650;2023-03-23T13:51:34;18.98;51.47
72126;SHT31;59999;51.676;22.650;2023-03-23T13:54:19;19.00;51.01
72126;SHT31;59999;51.676;22.650;2023-03-23T13:57:00;18.90;48.55
72126;SHT31;59999;51.676;22.650;2023-03-23T14:01:54;18.77;52.73
72126;SHT31;59999;51.676;22.650;2023-03-23T14:04:22;18.82;52.07
72126;SHT31;59999;51.676;22.650;2023-03-23T14:06:50;18.75;50.64
72126;SHT31;59999;51.676;22.650;2023-03-23T14:09:26;18.58;50.86
72126;SHT31;59999;51.676;22.650;2023-03-23T14:11:59;18.42;51.28
72126;SHT31;59999;51.676;22.650;2023-03-23T14:14:33;18.25;50.46
72126;SHT31;59999;51.676;22.650;2023-03-23T14:17:17;18.13;51.63
72126;SHT31;59999;51.676;22.650;2023-03-23T14:19:48;17.97;52.08
72126;SHT31;59999;51.676;22.650;2023-03-23T14:25:08;17.86;53.96
72126;SHT31;59999;51.676;22.650;2023-03-23T14:27:35;17.74;53.60
72126;SHT31;59999;51.676;22.650;2023-03-23T14:30:23;17.66;53.42
72126;SHT31;59999;51.676;22.650;2023-03-23T14:32:52;17.62;54.49
72126;SHT31;59999;51.676;22.650;2023-03-23T14:35:29;17.66;54.41
72126;SHT31;59999;51.676;22.650;2023-03-23T14:37:56;17.59;53.35
72126;SHT31;59999;51.676;22.650;2023-03-23T14:40:26;17.56;54.22
72126;SHT31;59999;51.676;22.650;2023-03-23T14:42:53;17.50;54.36
72126;SHT31;59999;51.676;22.650;2023-03-23T14:45:21;17.42;54.92
72126;SHT31;59999;51.676;22.650;2023-03-23T14:47:51;17.42;54.03
72126;SHT31;59999;51.676;22.650;2023-03-23T14:52:52;17.22;54.44
72126;SHT31;59999;51.676;22.650;2023-03-23T14:55:20;17.15;55.67
72126;SHT31;59999;51.676;22.650;2023-03-23T14:57:48;17.10;55.46
72126;SHT31;59999;51.676;22.650;2023-03-23T15:00:21;17.00;55.41
72126;SHT31;59999;51.676;22.650;2023-03-23T15:02:52;16.92;55.50
72126;SHT31;59999;51.676;22.650;2023-03-23T15:05:30;16.84;56.54
72126;SHT31;59999;51.676;22.650;2023-03-23T15:08:10;16.78;56.42
72126;SHT31;59999;51.676;22.650;2023-03-23T15:10:37;16.76;56.80
72126;SHT31;59999;51.676;22.650;2023-03-23T15:13:04;16.73;57.57
72126;SHT31;59999;51.676;22.650;2023-03-23T15:15:32;16.77;56.23
72126;SHT31;59999;51.676;22.650;2023-03-23T15:18:00;16.74;56.20
72126;SHT31;59999;51.676;22.650;2023-03-23T15:20:52;16.73;57.50
72126;SHT31;59999;51.676;22.650;2023-03-23T15:23:27;16.70;57.33
72126;SHT31;59999;51.676;22.650;2023-03-23T15:25:56;16.71;57.73
72126;SHT31;59999;51.676;22.650;2023-03-23T15:28:30;16.70;57.83
72126;SHT31;59999;51.676;22.650;2023-03-23T15:31:01;16.68;57.58
72126;SHT31;59999;51.676;22.650;2023-03-23T15:33:38;16.64;57.87
72126;SHT31;59999;51.676;22.650;2023-03-23T15:36:14;16.71;57.54
72126;SHT31;59999;51.676;22.650;2023-03-23T15:38:44;16.66;57.99
72126;SHT31;59999;51.676;22.650;2023-03-23T15:41:28;16.64;58.02
72126;SHT31;59999;51.676;22.650;2023-03-23T15:43:56;16.61;58.23
72126;SHT31;59999;51.676;22.650;2023-03-23T15:46:28;16.56;58.64
72126;SHT31;59999;51.676;22.650;2023-03-23T15:51:27;16.50;58.49
72126;SHT31;59999;51.676;22.650;2023-03-23T15:53:55;16.45;58.99
72126;SHT31;59999;51.676;22.650;2023-03-23T15:56:21;16.42;58.11
72126;SHT31;59999;51.676;22.650;2023-03-23T15:58:48;16.34;58.76
72126;SHT31;59999;51.676;22.650;2023-03-23T16:06:25;16.23;59.37
72126;SHT31;59999;51.676;22.650;2023-03-23T16:08:55;16.23;58.92
72126;SHT31;59999;51.676;22.650;2023-03-23T16:11:24;16.28;59.05
72126;SHT31;59999;51.676;22.650;2023-03-23T16:13:50;16.22;59.02
72126;SHT31;59999;51.676;22.650;2023-03-23T16:17:07;16.28;57.93
72126;SHT31;59999;51.676;22.650;2023-03-23T16:19:15;16.38;57.93
72126;SHT31;59999;51.676;22.650;2023-03-23T16:21:41;16.42;57.64
72126;SHT31;59999;51.676;22.650;2023-03-23T16:24:08;16.42;57.35
72126;SHT31;59999;51.676;22.650;2023-03-23T16:26:35;16.45;57.46
72126;SHT31;59999;51.676;22.650;2023-03-23T16:29:02;16.46;57.69
72126;SHT31;59999;51.676;22.650;2023-03-23T16:31:33;16.43;57.79
72126;SHT31;59999;51.676;22.650;2023-03-23T16:33:59;16.50;56.68
72126;SHT31;59999;51.676;22.650;2023-03-23T16:36:25;16.50;57.37
72126;SHT31;59999;51.676;22.650;2023-03-23T16:38:51;16.57;56.59
72126;SHT31;59999;51.676;22.650;2023-03-23T16:41:17;16.60;56.23
72126;SHT31;59999;51.676;22.650;2023-03-23T16:43:44;16.59;56.37
72126;SHT31;59999;51.676;22.650;2023-03-23T16:46:11;16.55;56.94
72126;SHT31;59999;51.676;22.650;2023-03-23T16:48:39;16.47;57.85
72126;SHT31;59999;51.676;22.650;2023-03-23T16:51:05;16.40;57.97
72126;SHT31;59999;51.676;22.650;2023-03-23T16:53:31;16.26;58.28
72126;SHT31;59999;51.676;22.650;2023-03-23T16:55:57;16.20;58.31
72126;SHT31;59999;51.676;22.650;2023-03-23T16:58:23;16.13;57.89
72126;SHT31;59999;51.676;22.650;2023-03-23T17:00:51;16.09;58.10
72126;SHT31;59999;51.676;22.650;2023-03-23T17:03:18;16.08;57.47
72126;SHT31;59999;51.676;22.650;2023-03-23T17:05:47;16.06;56.93
72126;SHT31;59999;51.676;22.650;2023-03-23T17:08:14;16.06;56.91
72126;SHT31;59999;51.676;22.650;2023-03-23T17:10:40;16.04;57.60
72126;SHT31;59999;51.676;22.650;2023-03-23T17:13:07;16.04;56.84
72126;SHT31;59999;51.676;22.650;2023-03-23T17:15:36;16.01;56.93
72126;SHT31;59999;51.676;22.650;2023-03-23T17:18:03;16.06;56.44
72126;SHT31;59999;51.676;22.650;2023-03-23T17:20:29;16.05;56.73
72126;SHT31;59999;51.676;22.650;2023-03-23T17:22:56;16.01;57.14
72126;SHT31;59999;51.676;22.650;2023-03-23T17:25:24;15.99;56.83
72126;SHT31;59999;51.676;22.650;2023-03-23T17:27:51;15.94;57.24
72126;SHT31;59999;51.676;22.650;2023-03-23T17:30:17;15.94;57.48
72126;SHT31;59999;51.676;22.650;2023-03-23T17:32:43;15.88;57.60
72126;SHT31;59999;51.676;22.650;2023-03-23T17:35:12;15.81;57.84
72126;SHT31;59999;51.676;22.650;2023-03-23T17:37:38;15.77;57.93